createdAt,value
2018-08-11T00:00:35.677Z,0.00
2018-08-11T00:01:35.679Z,0.00
2018-08-11T00:02:35.681Z,0.00
2018-08-11T00:03:35.684Z,0.00
2018-08-11T00:04:35.688Z,0.00
2018-08-11T00:05:35.691Z,0.00
2018-08-11T00:06:35.692Z,0.00
2018-08-11T00:07:35.694Z,0.00
2018-08-11T00:08:35.697Z,0.00
2018-08-11T00:09:35.699Z,0.00
2018-08-11T00:10:35.701Z,0.00
2018-08-11T00:11:35.704Z,0.00
2018-08-11T00:12:35.707Z,0.00
2018-08-11T00:13:35.711Z,0.00
2018-08-11T00:14:35.712Z,0.00
2018-08-11T00:15:35.720Z,0.00
2018-08-11T00:16:35.719Z,0.00
2018-08-11T00:17:35.724Z,0.00
2018-08-11T00:18:35.725Z,0.00
2018-08-11T00:19:35.726Z,0.00
2018-08-11T00:20:35.727Z,0.00
2018-08-11T00:21:35.729Z,0.00
2018-08-11T00:22:35.730Z,0.00
2018-08-11T00:23:35.738Z,0.00
2018-08-11T00:24:35.735Z,0.00
2018-08-11T00:25:35.739Z,0.00
2018-08-11T00:26:35.741Z,0.00
2018-08-11T00:27:35.742Z,0.00
2018-08-11T00:28:35.745Z,0.00
2018-08-11T00:29:35.747Z,0.00
2018-08-11T00:30:35.748Z,0.00
2018-08-11T00:31:35.754Z,0.00
2018-08-11T00:32:35.754Z,0.00
2018-08-11T00:33:35.756Z,0.00
2018-08-11T00:34:35.759Z,0.00
2018-08-11T00:35:35.760Z,0.00
2018-08-11T00:36:35.855Z,0.00
2018-08-11T00:37:35.765Z,0.00
2018-08-11T00:38:35.767Z,0.00
2018-08-11T00:39:35.767Z,0.00
2018-08-11T00:40:35.771Z,0.00
2018-08-11T00:41:35.772Z,0.00
2018-08-11T00:42:35.776Z,0.00
2018-08-11T00:43:35.775Z,0.00
2018-08-11T00:44:35.777Z,0.00
2018-08-11T00:45:35.779Z,0.00
2018-08-11T00:46:35.781Z,0.00
2018-08-11T00:47:35.782Z,0.00
2018-08-11T00:48:35.786Z,0.00
2018-08-11T00:49:35.843Z,0.00
2018-08-11T00:50:35.789Z,0.00
2018-08-11T00:51:35.794Z,0.00
2018-08-11T00:52:35.793Z,0.00
2018-08-11T00:53:35.793Z,0.00
2018-08-11T00:54:35.796Z,0.00
2018-08-11T00:55:35.797Z,0.00
2018-08-11T00:56:35.800Z,0.00
2018-08-11T00:57:35.800Z,0.00
2018-08-11T00:58:35.801Z,0.00
2018-08-11T00:59:35.803Z,0.00
2018-08-11T01:00:35.804Z,0.00
2018-08-11T01:01:35.806Z,0.00
2018-08-11T01:02:35.809Z,0.00
2018-08-11T01:03:35.809Z,0.00
2018-08-11T01:04:35.810Z,0.00
2018-08-11T01:05:35.815Z,0.00
2018-08-11T01:06:35.812Z,0.00
2018-08-11T01:07:35.811Z,0.00
2018-08-11T01:08:35.816Z,0.00
2018-08-11T01:09:35.815Z,0.00
2018-08-11T01:10:35.815Z,0.00
2018-08-11T01:11:35.817Z,0.00
2018-08-11T01:12:35.820Z,0.00
2018-08-11T01:13:35.819Z,0.00
2018-08-11T01:14:35.821Z,0.00
2018-08-11T01:15:35.820Z,0.00
2018-08-11T01:16:35.821Z,0.00
2018-08-11T01:17:35.822Z,0.00
2018-08-11T01:18:35.830Z,0.00
2018-08-11T01:19:35.826Z,0.00
2018-08-11T01:20:35.825Z,0.00
2018-08-11T01:21:35.824Z,0.00
2018-08-11T01:22:35.824Z,0.00
2018-08-11T01:23:35.826Z,0.00
2018-08-11T01:24:35.825Z,0.00
2018-08-11T01:25:35.826Z,0.00
2018-08-11T01:26:35.828Z,0.00
2018-08-11T01:27:35.827Z,0.00
2018-08-11T01:28:35.827Z,0.00
2018-08-11T01:29:35.831Z,0.00
2018-08-11T01:30:35.827Z,0.00
2018-08-11T01:31:35.828Z,0.00
2018-08-11T01:32:35.831Z,0.00
2018-08-11T01:33:35.829Z,0.00
2018-08-11T01:34:35.832Z,0.00
2018-08-11T01:35:35.830Z,0.00
2018-08-11T01:36:35.834Z,0.00
2018-08-11T01:37:35.833Z,0.00
2018-08-11T01:38:35.830Z,0.00
2018-08-11T01:39:35.830Z,0.00
2018-08-11T01:40:35.831Z,0.00
2018-08-11T01:41:35.841Z,0.00
2018-08-11T01:42:35.833Z,0.00
2018-08-11T01:43:35.833Z,0.00
2018-08-11T01:44:35.832Z,0.00
2018-08-11T01:45:35.833Z,0.00
2018-08-11T01:46:35.832Z,0.00
2018-08-11T01:47:35.836Z,0.00
2018-08-11T01:48:35.832Z,0.00
2018-08-11T01:49:35.832Z,0.00
2018-08-11T01:50:35.832Z,0.00
2018-08-11T01:51:35.832Z,0.00
2018-08-11T01:52:35.838Z,0.00
2018-08-11T01:53:35.832Z,0.00
2018-08-11T01:54:35.832Z,0.00
2018-08-11T01:55:35.834Z,0.00
2018-08-11T01:56:35.832Z,0.00
2018-08-11T01:57:35.833Z,0.00
2018-08-11T01:58:35.832Z,0.00
2018-08-11T01:59:35.832Z,0.00
2018-08-11T02:00:35.832Z,0.00
2018-08-11T02:01:35.832Z,0.00
2018-08-11T02:02:35.833Z,0.00
2018-08-11T02:03:35.832Z,0.00
2018-08-11T02:04:35.833Z,0.00
2018-08-11T02:05:35.832Z,0.00
2018-08-11T02:06:35.831Z,0.00
2018-08-11T02:07:35.839Z,0.00
2018-08-11T02:08:35.833Z,0.00
2018-08-11T02:09:35.832Z,0.00
2018-08-11T02:10:35.831Z,0.00
2018-08-11T02:11:35.831Z,0.00
2018-08-11T02:12:35.831Z,0.00
2018-08-11T02:15:35.831Z,0.00
2018-08-11T02:16:35.830Z,0.00
2018-08-11T02:17:35.830Z,0.00
2018-08-11T02:18:35.828Z,0.00
2018-08-11T02:19:35.828Z,0.00
2018-08-11T02:20:35.831Z,0.00
2018-08-11T02:21:35.829Z,0.00
2018-08-11T02:22:35.827Z,0.00
2018-08-11T02:23:35.831Z,0.00
2018-08-11T02:24:35.860Z,0.00
2018-08-11T02:25:35.825Z,0.00
2018-08-11T02:26:35.845Z,0.00
2018-08-11T02:27:35.824Z,0.00
2018-08-11T02:28:35.824Z,0.00
2018-08-11T02:29:35.826Z,0.00
2018-08-11T02:30:35.823Z,0.00
2018-08-11T02:31:35.827Z,0.00
2018-08-11T02:32:35.828Z,0.00
2018-08-11T02:33:35.826Z,0.00
2018-08-11T02:34:35.821Z,0.00
2018-08-11T02:35:35.821Z,0.00
2018-08-11T02:36:35.821Z,0.00
2018-08-11T02:37:35.820Z,0.00
2018-08-11T02:38:35.818Z,0.00
2018-08-11T02:39:35.818Z,0.00
2018-08-11T02:40:35.819Z,0.00
2018-08-11T02:41:35.818Z,0.00
2018-08-11T02:42:35.817Z,0.00
2018-08-11T02:43:35.816Z,0.00
2018-08-11T02:44:35.819Z,0.00
2018-08-11T02:45:35.815Z,0.00
2018-08-11T02:46:35.813Z,0.00
2018-08-11T02:47:35.818Z,0.00
2018-08-11T02:48:35.815Z,0.00
2018-08-11T02:49:35.816Z,0.00
2018-08-11T02:50:35.813Z,0.00
2018-08-11T02:51:35.815Z,0.00
2018-08-11T02:52:35.815Z,0.00
2018-08-11T02:53:35.813Z,0.00
2018-08-11T02:54:35.810Z,0.00
2018-08-11T02:55:35.809Z,0.00
2018-08-11T02:56:35.810Z,0.00
2018-08-11T02:57:35.808Z,0.00
2018-08-11T02:58:35.807Z,0.00
2018-08-11T02:59:35.812Z,0.00
2018-08-11T03:00:35.810Z,0.00
2018-08-11T03:01:35.806Z,0.00
2018-08-11T03:02:35.878Z,0.00
2018-08-11T03:03:35.808Z,0.00
2018-08-11T03:04:35.811Z,0.00
2018-08-11T03:05:35.805Z,0.00
2018-08-11T03:06:35.804Z,0.00
2018-08-11T03:07:35.806Z,0.00
2018-08-11T03:08:35.802Z,0.00
2018-08-11T03:09:35.807Z,0.00
2018-08-11T03:10:35.800Z,0.00
2018-08-11T03:11:35.803Z,0.00
2018-08-11T03:12:35.800Z,0.00
2018-08-11T03:13:35.800Z,0.00
2018-08-11T03:14:35.801Z,0.00
2018-08-11T03:15:35.801Z,0.00
2018-08-11T03:16:35.798Z,0.00
2018-08-11T03:17:35.798Z,0.00
2018-08-11T03:18:35.797Z,0.00
2018-08-11T03:19:35.795Z,0.00
2018-08-11T03:20:35.794Z,0.00
2018-08-11T03:21:35.797Z,0.00
2018-08-11T03:22:35.794Z,0.00
2018-08-11T03:23:35.797Z,0.00
2018-08-11T03:24:35.797Z,0.00
2018-08-11T03:25:35.791Z,0.00
2018-08-11T03:26:35.789Z,0.00
2018-08-11T03:27:35.794Z,0.00
2018-08-11T03:28:35.788Z,0.00
2018-08-11T03:29:35.788Z,0.00
2018-08-11T03:30:35.789Z,0.00
2018-08-11T03:31:35.787Z,0.00
2018-08-11T03:32:35.784Z,0.00
2018-08-11T03:33:35.786Z,0.00
2018-08-11T03:34:35.782Z,0.00
2018-08-11T03:35:35.786Z,0.00
2018-08-11T03:36:35.782Z,0.00
2018-08-11T03:37:35.781Z,0.00
2018-08-11T03:38:35.783Z,0.00
2018-08-11T03:39:35.781Z,0.00
2018-08-11T03:40:35.777Z,0.00
2018-08-11T03:41:35.776Z,0.00
2018-08-11T03:42:35.779Z,0.00
2018-08-11T03:43:35.774Z,0.00
2018-08-11T03:44:35.774Z,0.00
2018-08-11T03:45:35.774Z,0.00
2018-08-11T03:46:35.771Z,0.00
2018-08-11T03:47:35.773Z,0.00
2018-08-11T03:48:35.774Z,0.00
2018-08-11T03:49:35.771Z,0.00
2018-08-11T03:50:35.767Z,0.00
2018-08-11T03:51:35.767Z,0.00
2018-08-11T03:52:35.858Z,0.00
2018-08-11T03:53:35.765Z,0.00
2018-08-11T03:54:35.763Z,0.00
2018-08-11T03:55:35.762Z,0.00
2018-08-11T03:56:35.761Z,0.00
2018-08-11T03:57:35.761Z,0.00
2018-08-11T03:58:35.760Z,0.00
2018-08-11T03:59:35.759Z,0.00
2018-08-11T04:00:35.758Z,0.00
2018-08-11T04:01:35.756Z,0.00
2018-08-11T04:02:35.757Z,0.00
2018-08-11T04:03:35.757Z,0.00
2018-08-11T04:04:35.753Z,0.00
2018-08-11T04:05:35.754Z,0.00
2018-08-11T04:06:35.759Z,0.00
2018-08-11T04:07:35.750Z,0.00
2018-08-11T04:08:35.750Z,5.63
2018-08-11T04:09:35.749Z,5.63
2018-08-11T04:10:35.748Z,5.63
2018-08-11T04:11:35.747Z,5.63
2018-08-11T04:12:35.746Z,11.25
2018-08-11T04:13:35.752Z,11.25
2018-08-11T04:14:35.744Z,5.63
2018-08-11T04:15:35.751Z,11.25
2018-08-11T04:16:35.742Z,11.25
2018-08-11T04:17:35.747Z,11.25
2018-08-11T04:18:35.740Z,11.25
2018-08-11T04:19:35.746Z,11.25
2018-08-11T04:20:35.740Z,16.88
2018-08-11T04:21:35.740Z,16.88
2018-08-11T04:22:35.736Z,16.88
2018-08-11T04:23:35.740Z,22.50
2018-08-11T04:24:35.739Z,22.50
2018-08-11T04:25:35.736Z,22.50
2018-08-11T04:26:35.736Z,28.13
2018-08-11T04:27:35.737Z,28.13
2018-08-11T04:28:35.733Z,33.75
2018-08-11T04:29:35.730Z,39.38
2018-08-11T04:30:35.728Z,39.38
2018-08-11T04:31:35.725Z,33.75
2018-08-11T04:32:35.725Z,22.50
2018-08-11T04:33:35.734Z,22.50
2018-08-11T04:34:35.723Z,22.50
2018-08-11T04:35:35.727Z,22.50
2018-08-11T04:36:35.722Z,28.13
2018-08-11T04:37:35.721Z,28.13
2018-08-11T04:38:35.721Z,28.13
2018-08-11T04:39:35.719Z,22.50
2018-08-11T04:40:35.717Z,22.50
2018-08-11T04:41:35.718Z,28.13
2018-08-11T04:42:35.715Z,28.13
2018-08-11T04:43:35.713Z,28.13
2018-08-11T04:44:35.713Z,28.13
2018-08-11T04:45:35.713Z,28.13
2018-08-11T04:46:35.713Z,28.13
2018-08-11T04:47:35.711Z,45.00
2018-08-11T04:48:35.714Z,45.00
2018-08-11T04:49:35.708Z,45.00
2018-08-11T04:50:35.706Z,45.00
2018-08-11T04:51:35.707Z,45.00
2018-08-11T04:52:35.705Z,39.38
2018-08-11T04:53:35.705Z,39.38
2018-08-11T04:54:35.702Z,33.75
2018-08-11T04:55:35.702Z,33.75
2018-08-11T04:56:35.701Z,33.75
2018-08-11T04:57:35.706Z,33.75
2018-08-11T04:58:35.697Z,39.38
2018-08-11T04:59:35.695Z,39.38
2018-08-11T05:00:35.696Z,50.63
2018-08-11T05:01:35.695Z,56.25
2018-08-11T05:02:35.699Z,56.25
2018-08-11T05:03:35.692Z,67.50
2018-08-11T05:04:35.696Z,73.13
2018-08-11T05:05:35.692Z,84.38
2018-08-11T05:06:35.689Z,84.38
2018-08-11T05:07:35.688Z,90.00
2018-08-11T05:08:35.689Z,90.00
2018-08-11T05:09:35.687Z,84.38
2018-08-11T05:10:35.686Z,90.00
2018-08-11T05:11:35.683Z,78.75
2018-08-11T05:12:35.693Z,78.75
2018-08-11T05:13:35.689Z,95.63
2018-08-11T05:14:35.682Z,78.75
2018-08-11T05:15:35.681Z,73.13
2018-08-11T05:16:35.679Z,67.50
2018-08-11T05:17:35.683Z,67.50
2018-08-11T05:18:35.676Z,78.75
2018-08-11T05:19:35.675Z,73.13
2018-08-11T05:20:35.676Z,78.75
2018-08-11T05:21:35.674Z,95.63
2018-08-11T05:22:35.673Z,101.25
2018-08-11T05:23:35.672Z,90.00
2018-08-11T05:24:35.672Z,101.25
2018-08-11T05:25:35.671Z,84.38
2018-08-11T05:26:35.668Z,78.75
2018-08-11T05:27:35.668Z,78.75
2018-08-11T05:28:35.667Z,67.50
2018-08-11T05:29:35.666Z,78.75
2018-08-11T05:30:35.667Z,90.00
2018-08-11T05:31:35.668Z,123.75
2018-08-11T05:32:35.668Z,95.63
2018-08-11T05:33:35.665Z,84.38
2018-08-11T05:34:35.661Z,78.75
2018-08-11T05:35:35.661Z,84.38
2018-08-11T05:36:35.661Z,67.50
2018-08-11T05:37:35.660Z,56.25
2018-08-11T05:38:35.667Z,61.88
2018-08-11T05:39:35.660Z,67.50
2018-08-11T05:40:35.657Z,95.63
2018-08-11T05:41:35.714Z,163.13
2018-08-11T05:42:35.657Z,225.00
2018-08-11T05:43:35.655Z,208.13
2018-08-11T05:44:35.655Z,151.88
2018-08-11T05:45:35.656Z,101.25
2018-08-11T05:46:35.652Z,101.25
2018-08-11T05:47:35.652Z,95.63
2018-08-11T05:48:35.651Z,95.63
2018-08-11T05:49:35.650Z,106.88
2018-08-11T05:50:35.651Z,185.63
2018-08-11T05:51:35.648Z,241.88
2018-08-11T05:52:35.648Z,185.63
2018-08-11T05:53:35.649Z,253.13
2018-08-11T05:54:35.646Z,253.13
2018-08-11T05:55:35.647Z,213.75
2018-08-11T05:56:35.648Z,236.25
2018-08-11T05:57:35.645Z,275.63
2018-08-11T05:58:35.645Z,230.63
2018-08-11T05:59:35.645Z,303.75
2018-08-11T06:00:35.649Z,253.13
2018-08-11T06:01:35.644Z,191.25
2018-08-11T06:02:35.641Z,281.25
2018-08-11T06:03:35.643Z,168.75
2018-08-11T06:04:35.640Z,180.00
2018-08-11T06:05:35.639Z,180.00
2018-08-11T06:06:35.642Z,253.13
2018-08-11T06:07:35.638Z,180.00
2018-08-11T06:08:35.646Z,146.25
2018-08-11T06:09:35.643Z,225.00
2018-08-11T06:10:35.696Z,225.00
2018-08-11T06:11:35.636Z,264.38
2018-08-11T06:12:35.636Z,168.75
2018-08-11T06:13:35.637Z,241.88
2018-08-11T06:14:35.636Z,360.00
2018-08-11T06:15:35.636Z,371.25
2018-08-11T06:16:35.634Z,376.88
2018-08-11T06:17:35.638Z,275.63
2018-08-11T06:18:35.637Z,410.63
2018-08-11T06:19:35.632Z,331.88
2018-08-11T06:20:35.633Z,281.25
2018-08-11T06:21:35.633Z,208.13
2018-08-11T06:22:35.633Z,281.25
2018-08-11T06:23:35.633Z,219.38
2018-08-11T06:24:35.636Z,365.63
2018-08-11T06:25:35.635Z,337.50
2018-08-11T06:26:35.638Z,298.13
2018-08-11T06:27:35.631Z,343.13
2018-08-11T06:28:35.633Z,337.50
2018-08-11T06:29:35.632Z,298.13
2018-08-11T06:30:35.631Z,320.63
2018-08-11T06:31:35.701Z,438.75
2018-08-11T06:32:35.633Z,337.50
2018-08-11T06:33:35.632Z,264.38
2018-08-11T06:34:35.647Z,275.63
2018-08-11T06:35:35.631Z,281.25
2018-08-11T06:36:35.631Z,315.00
2018-08-11T06:37:35.631Z,315.00
2018-08-11T06:38:35.630Z,360.00
2018-08-11T06:39:35.631Z,365.63
2018-08-11T06:40:35.696Z,337.50
2018-08-11T06:41:35.632Z,337.50
2018-08-11T06:42:35.630Z,421.88
2018-08-11T06:43:35.632Z,365.63
2018-08-11T06:44:35.630Z,399.38
2018-08-11T06:45:35.631Z,348.75
2018-08-11T06:46:35.645Z,320.63
2018-08-11T06:47:35.630Z,247.50
2018-08-11T06:48:35.631Z,337.50
2018-08-11T06:49:35.631Z,523.13
2018-08-11T06:50:35.630Z,348.75
2018-08-11T06:51:35.630Z,551.25
2018-08-11T06:52:35.632Z,348.75
2018-08-11T06:53:35.631Z,281.25
2018-08-11T06:54:35.631Z,410.63
2018-08-11T06:55:35.728Z,343.13
2018-08-11T06:56:35.633Z,410.63
2018-08-11T06:57:35.631Z,298.13
2018-08-11T06:58:35.632Z,309.38
2018-08-11T06:59:35.631Z,315.00
2018-08-11T07:00:35.632Z,382.50
2018-08-11T07:01:35.633Z,455.63
2018-08-11T07:02:35.632Z,416.25
2018-08-11T07:03:35.633Z,382.50
2018-08-11T07:04:35.633Z,495.00
2018-08-11T07:05:35.639Z,320.63
2018-08-11T07:06:35.717Z,365.63
2018-08-11T07:07:35.634Z,427.50
2018-08-11T07:08:35.636Z,461.25
2018-08-11T07:09:35.638Z,450.00
2018-08-11T07:10:35.659Z,405.00
2018-08-11T07:11:35.638Z,444.38
2018-08-11T07:12:35.636Z,500.63
2018-08-11T07:13:35.638Z,461.25
2018-08-11T07:14:35.639Z,444.38
2018-08-11T07:15:35.642Z,388.13
2018-08-11T07:16:35.643Z,371.25
2018-08-11T07:17:35.642Z,343.13
2018-08-11T07:18:35.641Z,354.38
2018-08-11T07:19:35.642Z,410.63
2018-08-11T07:20:35.646Z,354.38
2018-08-11T07:21:35.643Z,365.63
2018-08-11T07:22:35.643Z,376.88
2018-08-11T07:23:35.644Z,348.75
2018-08-11T07:24:35.652Z,326.25
2018-08-11T07:25:35.646Z,360.00
2018-08-11T07:26:35.755Z,433.13
2018-08-11T07:27:35.648Z,405.00
2018-08-11T07:28:35.647Z,371.25
2018-08-11T07:29:35.650Z,444.38
2018-08-11T07:30:35.650Z,461.25
2018-08-11T07:31:35.650Z,281.25
2018-08-11T07:32:35.652Z,320.63
2018-08-11T07:33:35.652Z,343.13
2018-08-11T07:34:35.652Z,360.00
2018-08-11T07:35:35.653Z,421.88
2018-08-11T07:36:35.730Z,371.25
2018-08-11T07:37:35.655Z,405.00
2018-08-11T07:38:35.657Z,365.63
2018-08-11T07:39:35.657Z,382.50
2018-08-11T07:40:35.657Z,365.63
2018-08-11T07:41:35.662Z,348.75
2018-08-11T07:42:35.660Z,343.13
2018-08-11T07:43:35.660Z,348.75
2018-08-11T07:44:35.667Z,343.13
2018-08-11T07:45:35.662Z,399.38
2018-08-11T07:46:35.663Z,405.00
2018-08-11T07:47:35.679Z,399.38
2018-08-11T07:48:35.666Z,393.75
2018-08-11T07:49:35.666Z,523.13
2018-08-11T07:50:35.666Z,630.00
2018-08-11T07:51:35.670Z,669.38
2018-08-11T07:52:35.673Z,669.38
2018-08-11T07:53:35.674Z,427.50
2018-08-11T07:54:35.669Z,241.88
2018-08-11T07:55:35.671Z,399.38
2018-08-11T07:56:35.673Z,646.88
2018-08-11T07:57:35.673Z,680.63
2018-08-11T07:58:35.678Z,393.75
2018-08-11T07:59:35.676Z,450.00
2018-08-11T08:00:35.678Z,461.25
2018-08-11T08:01:35.680Z,399.38
2018-08-11T08:02:35.681Z,742.50
2018-08-11T08:03:35.683Z,320.63
2018-08-11T08:04:35.684Z,360.00
2018-08-11T08:05:35.686Z,596.25
2018-08-11T08:06:35.685Z,1878.75
2018-08-11T08:07:35.687Z,3555.00
2018-08-11T08:08:35.691Z,3358.13
2018-08-11T08:09:35.693Z,2216.25
2018-08-11T08:10:35.693Z,3504.38
2018-08-11T08:11:35.705Z,748.13
2018-08-11T08:12:35.701Z,1096.88
2018-08-11T08:13:35.705Z,2553.75
2018-08-11T08:14:35.705Z,1333.13
2018-08-11T08:15:35.710Z,1800.00
2018-08-11T08:16:35.713Z,2362.50
2018-08-11T08:17:35.718Z,781.88
2018-08-11T08:18:35.720Z,483.75
2018-08-11T08:19:35.727Z,905.63
2018-08-11T08:20:35.733Z,540.00
2018-08-11T08:21:35.736Z,680.63
2018-08-11T08:22:35.739Z,900.00
2018-08-11T08:23:35.744Z,585.00
2018-08-11T08:24:35.747Z,1411.88
2018-08-11T08:25:35.755Z,365.63
2018-08-11T08:26:35.841Z,945.00
2018-08-11T08:27:35.761Z,3746.25
2018-08-11T08:28:35.766Z,3802.50
2018-08-11T08:29:35.773Z,3937.50
2018-08-11T08:30:35.773Z,781.88
2018-08-11T08:31:35.779Z,399.38
2018-08-11T08:32:35.784Z,3481.88
2018-08-11T08:33:35.790Z,3684.38
2018-08-11T08:34:35.795Z,511.88
2018-08-11T08:35:35.802Z,3915.00
2018-08-11T08:36:35.806Z,579.38
2018-08-11T08:37:35.815Z,534.38
2018-08-11T08:38:35.819Z,573.75
2018-08-11T08:39:35.824Z,545.63
2018-08-11T08:40:35.832Z,517.50
2018-08-11T08:41:35.851Z,2148.75
2018-08-11T08:42:35.845Z,410.63
2018-08-11T08:43:35.851Z,461.25
2018-08-11T08:44:35.857Z,3791.25
2018-08-11T08:45:35.862Z,4027.50
2018-08-11T08:46:35.869Z,3948.75
2018-08-11T08:47:35.939Z,3746.25
2018-08-11T08:48:35.880Z,3915.00
2018-08-11T08:49:35.887Z,635.63
2018-08-11T08:50:35.894Z,3796.88
2018-08-11T08:51:35.901Z,725.63
2018-08-11T08:52:35.908Z,365.63
2018-08-11T08:53:35.915Z,3746.25
2018-08-11T08:54:35.922Z,3774.38
2018-08-11T08:55:35.931Z,3774.38
2018-08-11T08:56:35.937Z,2913.75
2018-08-11T08:57:35.945Z,1766.25
2018-08-11T08:58:35.952Z,1018.13
2018-08-11T08:59:35.960Z,2418.75
2018-08-11T09:00:35.969Z,624.38
2018-08-11T09:01:35.978Z,523.13
2018-08-11T09:02:35.985Z,1074.38
2018-08-11T09:03:35.993Z,1040.63
2018-08-11T09:04:36.003Z,455.63
2018-08-11T09:05:36.012Z,337.50
2018-08-11T09:06:36.017Z,348.75
2018-08-11T09:07:36.028Z,354.38
2018-08-11T09:08:36.033Z,523.13
2018-08-11T09:09:36.042Z,3515.63
2018-08-11T09:10:36.047Z,360.00
2018-08-11T09:11:36.055Z,241.88
2018-08-11T09:12:36.063Z,230.63
2018-08-11T09:13:36.070Z,517.50
2018-08-11T09:14:36.077Z,714.38
2018-08-11T09:15:36.082Z,444.38
2018-08-11T09:16:36.089Z,320.63
2018-08-11T09:17:36.096Z,399.38
2018-08-11T09:18:36.105Z,568.13
2018-08-11T09:19:36.174Z,2761.88
2018-08-11T09:20:36.116Z,1321.88
2018-08-11T09:21:36.121Z,641.25
2018-08-11T09:22:36.126Z,545.63
2018-08-11T09:23:36.133Z,450.00
2018-08-11T09:24:36.142Z,416.25
2018-08-11T09:25:36.148Z,483.75
2018-08-11T09:26:36.152Z,360.00
2018-08-11T09:27:36.159Z,303.75
2018-08-11T09:28:36.166Z,388.13
2018-08-11T09:29:36.174Z,427.50
2018-08-11T09:30:36.177Z,495.00
2018-08-11T09:31:36.181Z,3476.25
2018-08-11T09:32:36.189Z,1591.88
2018-08-11T09:33:36.195Z,416.25
2018-08-11T09:34:36.200Z,281.25
2018-08-11T09:35:36.207Z,444.38
2018-08-11T09:36:36.214Z,405.00
2018-08-11T09:37:36.220Z,821.25
2018-08-11T09:38:36.230Z,489.38
2018-08-11T09:39:36.230Z,450.00
2018-08-11T09:40:36.236Z,1760.63
2018-08-11T09:41:36.244Z,3380.63
2018-08-11T09:42:36.248Z,916.88
2018-08-11T09:43:36.254Z,3301.88
2018-08-11T09:44:36.262Z,472.50
2018-08-11T09:45:36.270Z,438.75
2018-08-11T09:46:36.273Z,337.50
2018-08-11T09:47:36.278Z,281.25
2018-08-11T09:48:36.287Z,247.50
2018-08-11T09:49:36.294Z,281.25
2018-08-11T09:50:36.299Z,393.75
2018-08-11T09:51:36.310Z,360.00
2018-08-11T09:52:36.316Z,3195.00
2018-08-11T09:53:36.319Z,3341.25
2018-08-11T09:54:36.325Z,3307.50
2018-08-11T09:55:36.331Z,3178.13
2018-08-11T09:56:36.338Z,3217.50
2018-08-11T09:57:36.345Z,3375.00
2018-08-11T09:58:36.401Z,888.75
2018-08-11T09:59:36.359Z,3256.88
2018-08-11T10:00:36.369Z,3256.88
2018-08-11T10:01:36.374Z,3166.88
2018-08-11T10:02:36.380Z,410.63
2018-08-11T10:03:36.390Z,495.00
2018-08-11T10:04:36.398Z,3048.75
2018-08-11T10:05:36.408Z,3110.63
2018-08-11T10:06:36.415Z,613.13
2018-08-11T10:07:36.422Z,534.38
2018-08-11T10:08:36.431Z,1029.38
2018-08-11T10:09:36.441Z,810.00
2018-08-11T10:10:36.471Z,1884.38
2018-08-11T10:11:36.456Z,3285.00
2018-08-11T10:12:36.465Z,3600.00
2018-08-11T10:13:36.475Z,4725.00
2018-08-11T10:14:36.483Z,5366.25
2018-08-11T10:15:36.493Z,4893.75
2018-08-11T10:16:36.502Z,5293.13
2018-08-11T10:17:36.510Z,2716.88
2018-08-11T10:18:36.568Z,562.50
2018-08-11T10:19:36.529Z,1265.63
2018-08-11T10:20:36.537Z,658.13
2018-08-11T10:21:36.548Z,1091.25
2018-08-11T10:22:36.561Z,478.13
2018-08-11T10:23:36.566Z,849.38
2018-08-11T10:24:36.576Z,1108.13
2018-08-11T10:25:36.587Z,990.00
2018-08-11T10:26:36.597Z,1018.13
2018-08-11T10:27:36.606Z,1091.25
2018-08-11T10:28:36.616Z,1170.00
2018-08-11T10:29:36.626Z,1215.00
2018-08-11T10:30:36.636Z,939.38
2018-08-11T10:31:36.645Z,753.75
2018-08-11T10:32:36.655Z,635.63
2018-08-11T10:33:36.666Z,607.50
2018-08-11T10:34:36.679Z,607.50
2018-08-11T10:35:36.685Z,613.13
2018-08-11T10:36:36.695Z,607.50
2018-08-11T10:37:36.705Z,585.00
2018-08-11T10:38:36.721Z,517.50
2018-08-11T10:39:36.726Z,421.88
2018-08-11T10:40:36.735Z,343.13
2018-08-11T10:41:36.744Z,298.13
2018-08-11T10:42:36.751Z,281.25
2018-08-11T10:43:36.759Z,270.00
2018-08-11T10:44:36.770Z,236.25
2018-08-11T10:45:36.776Z,196.88
2018-08-11T10:46:36.785Z,174.38
2018-08-11T10:47:36.796Z,174.38
2018-08-11T10:48:36.801Z,202.50
2018-08-11T10:49:36.809Z,253.13
2018-08-11T10:50:36.815Z,343.13
2018-08-11T10:51:36.822Z,517.50
2018-08-11T10:52:36.830Z,708.75
2018-08-11T10:53:36.838Z,832.50
2018-08-11T10:54:36.844Z,472.50
2018-08-11T10:55:36.850Z,360.00
2018-08-11T10:56:36.856Z,275.63
2018-08-11T10:57:36.862Z,230.63
2018-08-11T10:58:36.872Z,202.50
2018-08-11T10:59:36.875Z,180.00
2018-08-11T11:00:36.882Z,180.00
2018-08-11T11:01:36.888Z,185.63
2018-08-11T11:02:36.895Z,225.00
2018-08-11T11:03:36.900Z,292.50
2018-08-11T11:04:36.906Z,551.25
2018-08-11T11:05:36.912Z,528.75
2018-08-11T11:06:36.918Z,590.63
2018-08-11T11:07:36.924Z,596.25
2018-08-11T11:08:36.927Z,556.88
2018-08-11T11:09:36.935Z,483.75
2018-08-11T11:10:36.940Z,393.75
2018-08-11T11:11:36.944Z,388.13
2018-08-11T11:12:36.950Z,410.63
2018-08-11T11:13:36.960Z,438.75
2018-08-11T11:14:36.963Z,416.25
2018-08-11T11:15:36.967Z,416.25
2018-08-11T11:16:36.974Z,433.13
2018-08-11T11:17:36.978Z,438.75
2018-08-11T11:18:36.983Z,405.00
2018-08-11T11:19:36.989Z,354.38
2018-08-11T11:20:36.994Z,331.88
2018-08-11T11:22:25.339Z,348.75
2018-08-11T11:23:25.344Z,348.75
2018-08-11T11:24:25.351Z,399.38
2018-08-11T11:25:25.354Z,551.25
2018-08-11T11:26:25.359Z,663.75
2018-08-11T11:27:25.363Z,669.38
2018-08-11T11:28:25.368Z,714.38
2018-08-11T11:29:25.376Z,517.50
2018-08-11T11:30:25.379Z,416.25
2018-08-11T11:31:25.382Z,416.25
2018-08-11T11:32:25.390Z,438.75
2018-08-11T11:33:25.394Z,455.63
2018-08-11T11:34:25.397Z,483.75
2018-08-11T11:35:25.403Z,613.13
2018-08-11T11:36:25.409Z,579.38
2018-08-11T11:37:25.446Z,517.50
2018-08-11T11:38:25.420Z,466.88
2018-08-11T11:39:25.424Z,433.13
2018-08-11T11:40:25.429Z,421.88
2018-08-11T11:41:25.434Z,410.63
2018-08-11T11:42:25.438Z,410.63
2018-08-11T11:43:25.501Z,416.25
2018-08-11T11:44:25.448Z,427.50
2018-08-11T11:45:25.454Z,371.25
2018-08-11T11:46:25.461Z,388.13
2018-08-11T11:47:25.464Z,365.63
2018-08-11T11:48:25.471Z,427.50
2018-08-11T11:49:25.477Z,500.63
2018-08-11T11:50:25.478Z,500.63
2018-08-11T11:51:25.483Z,562.50
2018-08-11T11:52:25.488Z,551.25
2018-08-11T11:53:25.493Z,556.88
2018-08-11T11:54:25.500Z,579.38
2018-08-11T11:55:25.503Z,573.75
2018-08-11T11:56:25.507Z,500.63
2018-08-11T11:57:25.513Z,421.88
2018-08-11T11:58:25.517Z,545.63
2018-08-11T11:59:25.522Z,523.13
2018-08-11T12:00:25.528Z,573.75
2018-08-11T12:01:25.534Z,455.63
2018-08-11T12:02:25.537Z,405.00
2018-08-11T12:03:25.542Z,371.25
2018-08-11T12:04:25.547Z,376.88
2018-08-11T12:05:25.562Z,399.38
2018-08-11T12:06:25.558Z,438.75
2018-08-11T12:07:25.562Z,483.75
2018-08-11T12:08:25.569Z,562.50
2018-08-11T12:09:25.576Z,568.13
2018-08-11T12:10:25.579Z,528.75
2018-08-11T12:11:25.584Z,472.50
2018-08-11T12:12:25.589Z,337.50
2018-08-11T12:13:25.595Z,320.63
2018-08-11T12:14:25.612Z,309.38
2018-08-11T12:15:25.603Z,303.75
2018-08-11T12:16:25.608Z,320.63
2018-08-11T12:17:25.613Z,354.38
2018-08-11T12:18:25.618Z,360.00
2018-08-11T12:19:25.635Z,343.13
2018-08-11T12:20:25.629Z,309.38
2018-08-11T12:21:25.635Z,286.88
2018-08-11T12:22:25.637Z,388.13
2018-08-11T12:23:25.645Z,326.25
2018-08-11T12:24:25.647Z,365.63
2018-08-11T12:25:25.652Z,348.75
2018-08-11T12:26:25.657Z,326.25
2018-08-11T12:27:25.662Z,309.38
2018-08-11T12:28:25.665Z,309.38
2018-08-11T12:29:25.670Z,309.38
2018-08-11T12:30:25.675Z,309.38
2018-08-11T12:31:25.680Z,326.25
2018-08-11T12:32:25.685Z,365.63
2018-08-11T12:33:25.691Z,343.13
2018-08-11T12:34:25.694Z,315.00
2018-08-11T12:35:25.698Z,292.50
2018-08-11T12:36:25.704Z,286.88
2018-08-11T12:37:25.710Z,292.50
2018-08-11T12:38:25.713Z,275.63
2018-08-11T12:39:25.719Z,264.38
2018-08-11T12:40:25.722Z,275.63
2018-08-11T12:41:25.728Z,292.50
2018-08-11T12:42:25.732Z,270.00
2018-08-11T12:43:25.736Z,253.13
2018-08-11T12:44:25.742Z,241.88
2018-08-11T12:45:25.746Z,258.75
2018-08-11T12:46:25.750Z,270.00
2018-08-11T12:47:25.753Z,326.25